Terminal Aerodrome Forecast
Issued by NWS Cheyenne, WY

Home | Current Version | Previous Version | Text Only | Print | Product List | Glossary On
Versions: 1 2 3 4 5 6 7 8 9 10 11 12 13
000
FTUS45 KCYS 061134 AAA
TAFCYS
TAF AMD
KCYS 061134Z 0612/0712 29007KT P6SM BKN200
     FM061500 24007KT P6SM BKN200
     FM061900 13013KT P6SM VCSH SCT070 BKN150
     FM062100 10013KT P6SM VCTS SCT060CB OVC100
     FM070500 02011KT P6SM VCSH SCT040 OVC150
     FM071000 02010KT P6SM VCSH OVC015=

USA.gov is the U.S. government's official web portal to all federal, state and local government web resources and services.